Time;durP1;ratioP1;P1;durP2;ratioP2;P2;SDS_P1;SDS_P2;PMS_P1;PMS_P2;Temp;Humidity;BMP_temperature;BMP_pressure;BME280_temperature;BME280_humidity;BME280_pressure;Samples;Min_cycle;Max_cycle;Signal;HPM_P1;HPM_P2
2022/02/17 00:02:12;;;;;;;4.50;2.45;;;;;;;;;;4971396;28;20448;-62
2022/02/17 00:04:37;;;;;;;6.47;1.90;;;;;;;;;;4971052;28;20480;-62
2022/02/17 00:07:03;;;;;;;3.22;1.90;;;;;;;;;;4971953;28;20309;-62
2022/02/17 00:09:28;;;;;;;4.80;1.60;;;;;;;;;;4972025;28;20404;-62
2022/02/17 00:11:53;;;;;;;3.20;1.60;;;;;;;;;;4971668;28;20371;-62
2022/02/17 00:14:19;;;;;;;3.45;1.40;;;;;;;;;;4971233;28;20425;-62
2022/02/17 00:16:44;;;;;;;10.48;2.17;;;;;;;;;;4971250;28;20411;-62
2022/02/17 00:19:09;;;;;;;8.32;1.90;;;;;;;;;;4972434;28;20436;-61
2022/02/17 00:21:35;;;;;;;2.50;1.52;;;;;;;;;;4971868;28;20372;-62
2022/02/17 00:24:00;;;;;;;5.88;1.63;;;;;;;;;;4972783;28;20444;-62
2022/02/17 00:26:25;;;;;;;5.20;1.70;;;;;;;;;;4971369;28;20475;-62
2022/02/17 00:28:51;;;;;;;2.85;1.58;;;;;;;;;;4972026;28;20407;-62
2022/02/17 00:31:16;;;;;;;2.90;1.60;;;;;;;;;;4970827;28;20484;-61
2022/02/17 00:33:41;;;;;;;2.35;1.52;;;;;;;;;;4970792;28;20037;-62
2022/02/17 00:36:07;;;;;;;3.03;1.23;;;;;;;;;;4970718;28;20123;-61
2022/02/17 00:38:32;;;;;;;6.85;1.77;;;;;;;;;;4970942;28;20506;-62
2022/02/17 00:40:58;;;;;;;3.05;1.58;;;;;;;;;;4970753;28;20325;-62
2022/02/17 00:43:24;;;;;;;3.00;1.45;;;;;;;;;;4969098;28;20336;-62
2022/02/17 00:45:50;;;;;;;2.45;1.05;;;;;;;;;;4970467;28;20049;-61
2022/02/17 00:48:15;;;;;;;2.72;1.23;;;;;;;;;;4970708;28;20048;-62
2022/02/17 00:50:40;;;;;;;3.67;1.42;;;;;;;;;;4970061;28;20353;-63
2022/02/17 00:53:06;;;;;;;2.13;1.55;;;;;;;;;;4970607;28;20314;-62
2022/02/17 00:55:31;;;;;;;3.30;1.52;;;;;;;;;;4971553;28;20508;-62
2022/02/17 00:57:57;;;;;;;5.95;1.40;;;;;;;;;;4970252;28;20045;-62
2022/02/17 01:00:22;;;;;;;3.05;1.75;;;;;;;;;;4973544;28;20032;-62
2022/02/17 01:02:48;;;;;;;2.00;1.38;;;;;;;;;;4978765;28;20397;-61
2022/02/17 01:05:13;;;;;;;5.07;1.80;;;;;;;;;;4969293;28;20139;-63
2022/02/17 01:07:38;;;;;;;2.10;1.15;;;;;;;;;;4970322;28;20325;-61
2022/02/17 01:10:04;;;;;;;3.95;1.40;;;;;;;;;;4970750;28;20448;-62
2022/02/17 01:12:29;;;;;;;3.50;1.13;;;;;;;;;;4985204;28;20413;-64
2022/02/17 01:14:54;;;;;;;2.08;1.38;;;;;;;;;;4970002;28;20579;-65
2022/02/17 01:17:20;;;;;;;1.38;1.10;;;;;;;;;;4970920;28;20391;-62
2022/02/17 01:19:45;;;;;;;3.28;1.55;;;;;;;;;;4969580;28;20475;-62
2022/02/17 01:22:12;;;;;;;2.40;1.38;;;;;;;;;;4969988;28;20420;-61
2022/02/17 01:24:37;;;;;;;4.78;1.50;;;;;;;;;;4970336;28;20356;-62
2022/02/17 01:27:03;;;;;;;3.17;1.38;;;;;;;;;;4969810;28;20372;-62
2022/02/17 01:29:28;;;;;;;1.73;1.10;;;;;;;;;;4969773;28;20448;-62
2022/02/17 01:31:53;;;;;;;2.70;1.20;;;;;;;;;;4970102;28;20520;-62
2022/02/17 01:34:18;;;;;;;1.55;1.02;;;;;;;;;;4969635;28;20424;-62
2022/02/17 01:36:44;;;;;;;1.63;1.00;;;;;;;;;;4970040;28;20447;-62
2022/02/17 01:39:09;;;;;;;1.73;1.02;;;;;;;;;;4970040;28;20025;-63
2022/02/17 01:41:35;;;;;;;4.53;1.48;;;;;;;;;;4969666;28;20372;-62
2022/02/17 01:44:02;;;;;;;6.30;1.30;;;;;;;;;;4970661;28;20517;-62
2022/02/17 01:46:35;;;;;;;1.90;1.30;;;;;;;;;;4969464;28;20099;-62
2022/02/17 01:49:02;;;;;;;3.30;1.00;;;;;;;;;;4971154;28;20310;-61
2022/02/17 01:51:27;;;;;;;1.52;0.80;;;;;;;;;;4968977;28;20445;-61
2022/02/17 01:53:52;;;;;;;1.73;0.95;;;;;;;;;;4969372;28;20435;-62
2022/02/17 01:56:18;;;;;;;1.92;1.05;;;;;;;;;;4970714;28;20356;-60
2022/02/17 01:58:43;;;;;;;3.15;1.25;;;;;;;;;;4970954;28;20412;-62
2022/02/17 02:01:08;;;;;;;2.38;0.93;;;;;;;;;;4969368;28;20457;-62
2022/02/17 02:03:34;;;;;;;1.40;1.02;;;;;;;;;;4970378;28;20464;-61
2022/02/17 02:05:59;;;;;;;2.38;1.25;;;;;;;;;;4969324;28;20471;-61
2022/02/17 02:08:25;;;;;;;2.03;1.27;;;;;;;;;;4969422;28;20456;-61
2022/02/17 02:10:50;;;;;;;2.95;1.20;;;;;;;;;;4968090;28;20329;-61
2022/02/17 02:13:16;;;;;;;2.53;1.40;;;;;;;;;;4970834;28;20360;-61
2022/02/17 02:15:48;;;;;;;4.80;1.08;;;;;;;;;;4969288;28;20347;-61
2022/02/17 02:18:14;;;;;;;2.15;1.08;;;;;;;;;;4968870;28;20084;-61
2022/02/17 02:20:44;;;;;;;4.75;1.25;;;;;;;;;;4970066;28;20026;-62
2022/02/17 02:23:09;;;;;;;1.20;1.10;;;;;;;;;;4969053;28;20476;-61
2022/02/17 02:25:35;;;;;;;1.60;1.15;;;;;;;;;;4968670;28;20432;-61
2022/02/17 02:28:00;;;;;;;2.70;1.10;;;;;;;;;;4970040;28;20436;-62
2022/02/17 02:30:25;;;;;;;1.90;1.00;;;;;;;;;;4969845;28;20030;-61
2022/02/17 02:32:51;;;;;;;1.40;0.77;;;;;;;;;;4968087;28;20337;-62
2022/02/17 02:35:16;;;;;;;1.70;1.10;;;;;;;;;;4969408;28;20498;-61
2022/02/17 02:37:41;;;;;;;1.80;0.90;;;;;;;;;;4968773;28;20470;-61
2022/02/17 02:40:08;;;;;;;3.38;1.55;;;;;;;;;;4969746;28;20425;-61
2022/02/17 02:42:33;;;;;;;7.78;1.30;;;;;;;;;;4968708;28;20368;-62
2022/02/17 02:44:59;;;;;;;2.22;1.13;;;;;;;;;;4969000;28;20436;-61
2022/02/17 02:47:25;;;;;;;1.88;1.17;;;;;;;;;;4969199;28;20448;-61
2022/02/17 02:49:50;;;;;;;1.35;1.05;;;;;;;;;;4969116;28;20065;-62
2022/02/17 02:52:15;;;;;;;3.83;1.08;;;;;;;;;;4968551;28;20352;-60
2022/02/17 02:54:41;;;;;;;1.67;1.10;;;;;;;;;;4968851;28;20033;-60
2022/02/17 02:57:06;;;;;;;1.35;1.05;;;;;;;;;;4968695;28;20302;-60
2022/02/17 02:59:31;;;;;;;2.17;1.52;;;;;;;;;;4968805;28;20086;-62
2022/02/17 03:01:57;;;;;;;1.85;1.05;;;;;;;;;;4969699;28;20399;-63
2022/02/17 03:04:22;;;;;;;1.73;1.30;;;;;;;;;;4968116;28;20333;-61
2022/02/17 03:06:47;;;;;;;1.30;1.20;;;;;;;;;;4969907;28;20385;-61
2022/02/17 03:09:13;;;;;;;2.80;1.10;;;;;;;;;;4968743;28;20505;-62
2022/02/17 03:11:38;;;;;;;1.98;1.05;;;;;;;;;;4968801;28;20388;-61
2022/02/17 03:14:03;;;;;;;1.42;1.00;;;;;;;;;;4967324;28;20344;-60
2022/02/17 03:16:29;;;;;;;0.85;0.77;;;;;;;;;;4968751;28;20494;-61
2022/02/17 03:18:55;;;;;;;1.45;0.98;;;;;;;;;;4969712;28;20400;-61
2022/02/17 03:21:21;;;;;;;2.22;1.27;;;;;;;;;;4969041;28;20171;-61
2022/02/17 03:23:46;;;;;;;1.60;1.35;;;;;;;;;;4967038;28;20334;-62
2022/02/17 03:26:11;;;;;;;1.95;0.95;;;;;;;;;;4968572;28;20340;-61
2022/02/17 03:28:37;;;;;;;5.88;1.15;;;;;;;;;;4968805;28;20034;-61
2022/02/17 03:31:02;;;;;;;1.63;1.10;;;;;;;;;;4971911;28;20021;-60
2022/02/17 03:33:27;;;;;;;1.90;1.10;;;;;;;;;;4972118;28;20519;-61
2022/02/17 03:35:53;;;;;;;1.88;1.15;;;;;;;;;;4972113;28;20061;-60
2022/02/17 03:38:18;;;;;;;2.38;1.40;;;;;;;;;;4972197;28;20432;-61
2022/02/17 03:40:43;;;;;;;2.05;1.00;;;;;;;;;;4972172;28;20090;-62
2022/02/17 03:43:09;;;;;;;1.40;1.02;;;;;;;;;;4972714;28;20409;-61
2022/02/17 03:45:34;;;;;;;1.73;1.02;;;;;;;;;;4971303;28;20033;-61
2022/02/17 03:47:59;;;;;;;1.73;1.00;;;;;;;;;;4971693;28;20433;-61
2022/02/17 03:50:25;;;;;;;1.50;1.02;;;;;;;;;;4971756;28;20112;-61
2022/02/17 03:52:50;;;;;;;1.65;0.90;;;;;;;;;;4973469;28;20421;-60
2022/02/17 03:55:16;;;;;;;2.67;1.20;;;;;;;;;;4971315;28;20398;-60
2022/02/17 03:57:44;;;;;;;1.00;0.90;;;;;;;;;;4971588;28;20467;-61
2022/02/17 04:00:10;;;;;;;1.95;1.05;;;;;;;;;;4971501;28;20459;-62
2022/02/17 04:02:35;;;;;;;1.30;0.98;;;;;;;;;;4972138;28;20352;-62
2022/02/17 04:05:01;;;;;;;2.30;1.40;;;;;;;;;;4970990;28;20100;-60
2022/02/17 04:07:27;;;;;;;1.50;1.17;;;;;;;;;;4973327;28;20029;-61
2022/02/17 04:09:52;;;;;;;1.88;1.13;;;;;;;;;;4970883;28;20030;-60
2022/02/17 04:12:17;;;;;;;1.38;0.98;;;;;;;;;;4972580;28;20425;-61
2022/02/17 04:14:42;;;;;;;2.28;1.30;;;;;;;;;;4970930;28;20137;-62
2022/02/17 04:17:08;;;;;;;1.77;0.90;;;;;;;;;;4971192;28;20451;-62
2022/02/17 04:19:33;;;;;;;1.85;1.17;;;;;;;;;;4971699;28;20079;-62
2022/02/17 04:21:59;;;;;;;1.55;1.00;;;;;;;;;;4971297;28;20444;-61
2022/02/17 04:24:24;;;;;;;2.10;1.20;;;;;;;;;;4971149;28;20421;-62
2022/02/17 04:26:49;;;;;;;3.15;1.33;;;;;;;;;;4970852;28;20033;-61
2022/02/17 04:29:16;;;;;;;1.83;0.90;;;;;;;;;;4971020;28;20314;-61
2022/02/17 04:31:41;;;;;;;1.10;0.93;;;;;;;;;;4971051;28;20409;-62
2022/02/17 04:34:06;;;;;;;2.85;1.48;;;;;;;;;;4970827;28;20456;-61
2022/02/17 04:36:32;;;;;;;2.15;1.40;;;;;;;;;;4970565;28;20128;-61
2022/02/17 04:38:57;;;;;;;1.17;1.00;;;;;;;;;;4970569;28;20052;-61
2022/02/17 04:44:07;;;;;;;1.70;1.08;;;;;;;;;;4971381;28;20425;-61
2022/02/17 04:46:32;;;;;;;1.67;1.00;;;;;;;;;;4971199;28;20356;-62
2022/02/17 04:48:57;;;;;;;1.20;1.00;;;;;;;;;;4970391;28;20411;-61
2022/02/17 04:51:23;;;;;;;1.60;1.20;;;;;;;;;;4971474;28;20356;-60
2022/02/17 04:53:48;;;;;;;2.00;1.23;;;;;;;;;;4970705;28;20551;-61
2022/02/17 04:56:13;;;;;;;2.05;1.30;;;;;;;;;;4970317;28;20436;-61
2022/02/17 04:58:39;;;;;;;1.25;0.80;;;;;;;;;;4970304;28;20428;-61
2022/02/17 05:01:04;;;;;;;1.30;0.73;;;;;;;;;;4970456;28;20356;-60
2022/02/17 05:03:30;;;;;;;2.30;1.27;;;;;;;;;;4970424;28;20436;-61
2022/02/17 05:05:56;;;;;;;0.90;0.80;;;;;;;;;;4969862;28;20577;-62
2022/02/17 05:08:21;;;;;;;1.60;1.00;;;;;;;;;;4970255;28;20451;-62
2022/02/17 05:10:47;;;;;;;1.25;1.05;;;;;;;;;;4970774;28;20568;-60
2022/02/17 05:13:12;;;;;;;1.58;1.05;;;;;;;;;;4970093;28;20325;-63
2022/02/17 05:15:38;;;;;;;1.98;1.10;;;;;;;;;;4969837;28;20507;-61
2022/02/17 05:18:04;;;;;;;1.08;0.90;;;;;;;;;;4970035;28;20455;-61
2022/02/17 05:20:29;;;;;;;2.13;0.90;;;;;;;;;;4970155;28;20428;-60
2022/02/17 05:22:54;;;;;;;1.67;1.20;;;;;;;;;;4970297;28;20441;-61
2022/02/17 05:25:20;;;;;;;1.13;0.82;;;;;;;;;;4970424;28;20440;-61
2022/02/17 05:27:45;;;;;;;2.15;0.95;;;;;;;;;;4970160;28;20340;-61
2022/02/17 05:30:10;;;;;;;1.67;1.00;;;;;;;;;;4969952;28;20360;-65
2022/02/17 05:32:40;;;;;;;0.82;0.70;;;;;;;;;;4969728;28;20341;-60
2022/02/17 05:35:07;;;;;;;1.00;0.90;;;;;;;;;;4969632;28;20429;-61
2022/02/17 05:37:32;;;;;;;1.90;0.88;;;;;;;;;;4969704;28;20432;-61
2022/02/17 05:39:57;;;;;;;2.67;1.08;;;;;;;;;;4969812;28;20445;-61
2022/02/17 05:42:22;;;;;;;0.85;0.85;;;;;;;;;;4970713;28;20563;-60
2022/02/17 05:44:48;;;;;;;2.35;0.80;;;;;;;;;;4969733;28;20423;-61
2022/02/17 05:47:13;;;;;;;1.30;0.88;;;;;;;;;;4969113;28;20348;-61
2022/02/17 05:49:38;;;;;;;1.27;0.80;;;;;;;;;;4970058;28;20317;-60
2022/02/17 05:52:04;;;;;;;1.63;0.75;;;;;;;;;;4968848;28;20322;-60
2022/02/17 05:54:29;;;;;;;1.52;0.98;;;;;;;;;;4969429;28;20478;-60
2022/02/17 05:56:55;;;;;;;0.98;0.77;;;;;;;;;;4970998;28;20383;-60
2022/02/17 05:59:20;;;;;;;1.40;0.90;;;;;;;;;;4969523;28;20498;-61
2022/02/17 06:01:45;;;;;;;1.13;0.80;;;;;;;;;;4969988;28;20047;-61
2022/02/17 06:04:11;;;;;;;1.25;0.75;;;;;;;;;;4970702;28;20516;-60
2022/02/17 06:06:36;;;;;;;2.90;0.90;;;;;;;;;;4968686;28;20417;-60
2022/02/17 06:09:05;;;;;;;1.30;0.88;;;;;;;;;;4969512;28;20052;-61
2022/02/17 06:11:30;;;;;;;1.80;0.80;;;;;;;;;;4969314;28;20457;-61
2022/02/17 06:13:55;;;;;;;1.33;0.90;;;;;;;;;;4969292;28;20329;-61
2022/02/17 06:16:21;;;;;;;2.85;0.80;;;;;;;;;;4969682;28;20389;-61
2022/02/17 06:18:46;;;;;;;2.13;1.15;;;;;;;;;;4969580;28;20383;-61
2022/02/17 06:21:12;;;;;;;2.13;1.08;;;;;;;;;;4970199;28;20092;-60
2022/02/17 06:23:37;;;;;;;0.73;0.63;;;;;;;;;;4969284;28;20395;-61
2022/02/17 06:26:03;;;;;;;1.42;0.80;;;;;;;;;;4969127;28;20353;-61
2022/02/17 06:28:28;;;;;;;1.88;0.50;;;;;;;;;;4969851;28;20389;-61
2022/02/17 06:30:53;;;;;;;1.75;0.93;;;;;;;;;;4969245;28;20526;-61
2022/02/17 06:33:19;;;;;;;0.43;0.43;;;;;;;;;;4969342;28;20462;-60
2022/02/17 06:35:44;;;;;;;2.03;0.98;;;;;;;;;;4969033;28;20392;-61
2022/02/17 06:38:09;;;;;;;1.88;0.82;;;;;;;;;;4969204;28;20463;-63
2022/02/17 06:40:34;;;;;;;1.33;0.90;;;;;;;;;;4968637;28;20412;-60
2022/02/17 06:43:07;;;;;;;0.80;0.70;;;;;;;;;;4970171;28;20021;-61
2022/02/17 06:45:34;;;;;;;0.93;0.65;;;;;;;;;;4967887;28;20455;-60
2022/02/17 06:48:00;;;;;;;1.70;1.00;;;;;;;;;;4968602;28;20064;-60
2022/02/17 06:50:25;;;;;;;1.02;0.80;;;;;;;;;;4968944;28;20518;-61
2022/02/17 06:52:51;;;;;;;2.00;0.77;;;;;;;;;;4968856;28;20542;-61
2022/02/17 06:55:16;;;;;;;1.50;0.82;;;;;;;;;;4969892;28;20408;-61
2022/02/17 06:57:41;;;;;;;1.13;0.80;;;;;;;;;;4969847;28;20230;-60
2022/02/17 07:00:08;;;;;;;1.55;0.73;;;;;;;;;;4969391;28;20387;-60
2022/02/17 07:02:33;;;;;;;1.33;0.65;;;;;;;;;;4970656;28;20502;-61
2022/02/17 07:05:00;;;;;;;2.08;0.90;;;;;;;;;;4970625;28;20437;-61
2022/02/17 07:07:25;;;;;;;1.05;0.65;;;;;;;;;;4971160;28;20602;-61
2022/02/17 07:09:50;;;;;;;2.45;0.70;;;;;;;;;;4972051;28;20510;-61
2022/02/17 07:12:16;;;;;;;1.40;0.70;;;;;;;;;;4973116;28;20345;-61
2022/02/17 07:14:41;;;;;;;1.60;0.95;;;;;;;;;;4972163;28;20432;-61
2022/02/17 07:17:07;;;;;;;1.23;0.68;;;;;;;;;;4972275;28;20530;-61
2022/02/17 07:19:32;;;;;;;1.60;0.80;;;;;;;;;;4972392;28;20578;-62
2022/02/17 07:21:58;;;;;;;3.25;0.77;;;;;;;;;;4971638;28;20033;-62
2022/02/17 07:24:23;;;;;;;1.33;0.75;;;;;;;;;;4973226;28;20507;-61
2022/02/17 07:26:50;;;;;;;4.28;1.02;;;;;;;;;;4972025;28;20504;-61
2022/02/17 07:29:15;;;;;;;3.13;1.10;;;;;;;;;;4973249;28;20379;-62
2022/02/17 07:31:41;;;;;;;1.48;0.80;;;;;;;;;;4987270;28;20099;-62
2022/02/17 07:34:07;;;;;;;1.08;0.60;;;;;;;;;;4972030;28;20419;-61
2022/02/17 07:36:33;;;;;;;2.70;0.90;;;;;;;;;;4971745;28;20040;-61
2022/02/17 07:38:59;;;;;;;3.03;1.00;;;;;;;;;;4971929;28;20430;-61
2022/02/17 07:41:24;;;;;;;2.40;0.90;;;;;;;;;;4971811;28;20352;-61
2022/02/17 07:43:49;;;;;;;6.32;1.17;;;;;;;;;;4972219;28;20450;-62
2022/02/17 07:46:15;;;;;;;1.83;1.23;;;;;;;;;;4971805;28;20472;-60
2022/02/17 07:48:40;;;;;;;1.67;0.75;;;;;;;;;;4973231;28;20091;-62
2022/02/17 07:51:07;;;;;;;1.90;0.93;;;;;;;;;;4971482;28;20332;-61
2022/02/17 07:53:32;;;;;;;1.55;0.88;;;;;;;;;;4971849;28;20146;-61
2022/02/17 07:55:58;;;;;;;2.33;0.93;;;;;;;;;;4969960;28;20425;-62
2022/02/17 07:58:24;;;;;;;1.67;0.77;;;;;;;;;;4971864;28;20460;-61
2022/02/17 08:00:49;;;;;;;3.13;1.35;;;;;;;;;;4971334;28;20410;-61
2022/02/17 08:03:15;;;;;;;2.90;0.90;;;;;;;;;;4971265;28;20510;-61
2022/02/17 08:05:41;;;;;;;1.35;0.90;;;;;;;;;;4970772;28;21194;-60
2022/02/17 08:08:08;;;;;;;1.60;0.90;;;;;;;;;;4971570;28;20426;-61
2022/02/17 08:10:35;;;;;;;1.55;1.02;;;;;;;;;;4971257;28;20037;-61
2022/02/17 08:13:01;;;;;;;1.08;0.82;;;;;;;;;;4970622;28;20459;-62
2022/02/17 08:15:26;;;;;;;3.20;1.30;;;;;;;;;;4971494;28;20448;-62
2022/02/17 08:17:51;;;;;;;2.97;1.17;;;;;;;;;;4971469;28;20400;-61
2022/02/17 08:20:17;;;;;;;2.85;1.25;;;;;;;;;;4973114;28;20455;-61
2022/02/17 08:22:50;;;;;;;2.45;2.15;;;;;;;;;;4972153;28;20364;-62
2022/02/17 08:25:15;;;;;;;1.75;1.30;;;;;;;;;;4970999;28;20349;-62
2022/02/17 08:27:41;;;;;;;2.65;1.30;;;;;;;;;;4972089;28;20099;-61
2022/02/17 08:30:07;;;;;;;2.00;1.33;;;;;;;;;;4970653;28;20104;-61
2022/02/17 08:32:36;;;;;;;2.10;1.30;;;;;;;;;;4969801;28;20314;-62
2022/02/17 08:35:02;;;;;;;2.50;1.20;;;;;;;;;;4972543;28;20421;-61
2022/02/17 08:37:28;;;;;;;2.47;1.25;;;;;;;;;;4970846;28;20424;-61
2022/02/17 08:39:53;;;;;;;1.90;1.10;;;;;;;;;;4970684;28;20310;-60
2022/02/17 08:42:18;;;;;;;2.75;1.60;;;;;;;;;;4970876;28;20397;-61
2022/02/17 08:44:44;;;;;;;4.00;1.77;;;;;;;;;;4970623;28;20029;-62
2022/02/17 08:47:10;;;;;;;3.28;1.35;;;;;;;;;;4970306;28;20128;-61
2022/02/17 08:49:35;;;;;;;2.45;1.48;;;;;;;;;;4970271;28;20084;-61
2022/02/17 08:52:00;;;;;;;3.63;1.40;;;;;;;;;;4970651;28;20441;-62
2022/02/17 08:54:25;;;;;;;4.68;1.63;;;;;;;;;;4970050;28;20423;-61
2022/02/17 08:56:51;;;;;;;3.33;1.52;;;;;;;;;;4970486;28;20463;-61
2022/02/17 08:59:16;;;;;;;2.97;1.60;;;;;;;;;;4969776;28;20445;-61
2022/02/17 09:01:41;;;;;;;4.53;1.77;;;;;;;;;;4970149;28;20464;-61
2022/02/17 09:04:07;;;;;;;2.42;1.63;;;;;;;;;;4970842;28;20539;-61
2022/02/17 09:06:32;;;;;;;3.00;1.85;;;;;;;;;;4969959;28;20498;-61
2022/02/17 09:08:57;;;;;;;3.80;2.00;;;;;;;;;;4970463;28;20436;-61
2022/02/17 09:11:23;;;;;;;4.57;1.80;;;;;;;;;;4970540;28;20505;-61
2022/02/17 09:13:48;;;;;;;4.82;2.47;;;;;;;;;;4970059;28;20420;-61
2022/02/17 09:16:14;;;;;;;4.18;2.20;;;;;;;;;;4970076;28;20137;-62
2022/02/17 09:18:39;;;;;;;5.47;2.50;;;;;;;;;;4969930;28;20460;-61
2022/02/17 09:21:05;;;;;;;2.42;1.83;;;;;;;;;;4969960;28;20455;-61
2022/02/17 09:23:30;;;;;;;4.70;1.98;;;;;;;;;;4969931;28;20357;-62
2022/02/17 09:25:56;;;;;;;2.20;1.63;;;;;;;;;;4969776;28;20360;-61
2022/02/17 09:28:21;;;;;;;3.45;2.13;;;;;;;;;;4969369;28;20461;-60
2022/02/17 09:30:47;;;;;;;5.03;2.80;;;;;;;;;;4969834;28;20084;-61
2022/02/17 09:33:13;;;;;;;4.70;2.08;;;;;;;;;;4970078;28;20384;-60
2022/02/17 09:35:39;;;;;;;8.98;2.95;;;;;;;;;;4971110;28;20037;-61
2022/02/17 09:38:04;;;;;;;6.63;3.15;;;;;;;;;;4969677;28;20108;-61
2022/02/17 09:40:29;;;;;;;4.55;3.22;;;;;;;;;;4970019;28;20033;-61
2022/02/17 09:42:55;;;;;;;5.85;2.80;;;;;;;;;;4970087;28;20330;-61
2022/02/17 09:45:20;;;;;;;5.70;2.90;;;;;;;;;;4969358;28;20579;-61
2022/02/17 09:47:46;;;;;;;5.60;2.45;;;;;;;;;;4969603;28;20409;-62
2022/02/17 09:50:13;;;;;;;4.38;2.20;;;;;;;;;;4970474;28;20075;-61
2022/02/17 09:52:39;;;;;;;6.60;2.70;;;;;;;;;;4969999;28;20034;-61
2022/02/17 09:55:08;;;;;;;5.10;2.53;;;;;;;;;;4969659;28;20448;-62
2022/02/17 09:57:36;;;;;;;6.35;2.88;;;;;;;;;;4969388;28;20353;-61
2022/02/17 10:00:04;;;;;;;6.72;3.25;;;;;;;;;;4971230;28;20428;-61
2022/02/17 10:02:30;;;;;;;4.65;2.65;;;;;;;;;;4968681;28;20471;-61
2022/02/17 10:04:56;;;;;;;6.72;3.40;;;;;;;;;;4968839;28;20464;-61
2022/02/17 10:07:35;;;;;;;6.65;3.50;;;;;;;;;;4967992;28;20383;-61
2022/02/17 10:10:06;;;;;;;5.60;2.88;;;;;;;;;;4969755;28;20543;-60
2022/02/17 10:12:54;;;;;;;7.43;3.05;;;;;;;;;;4969211;28;20112;-61
2022/02/17 10:15:37;;;;;;;10.02;2.70;;;;;;;;;;4969261;28;20426;-60
2022/02/17 10:18:08;;;;;;;5.47;3.30;;;;;;;;;;4969423;28;20372;-60
2022/02/17 10:21:12;;;;;;;4.88;3.35;;;;;;;;;;4968719;28;20452;-61
2022/02/17 10:23:43;;;;;;;4.35;2.40;;;;;;;;;;4889440;29;20057;-60
2022/02/17 10:26:10;;;;;;;7.88;2.90;;;;;;;;;;4956303;28;20376;-61
2022/02/17 10:28:38;;;;;;;7.68;2.80;;;;;;;;;;4970088;28;20076;-60
2022/02/17 10:31:04;;;;;;;6.18;3.20;;;;;;;;;;4969838;28;20380;-61
2022/02/17 10:33:45;;;;;;;7.65;3.17;;;;;;;;;;4969119;28;20353;-61
2022/02/17 10:36:12;;;;;;;4.90;3.15;;;;;;;;;;4969317;28;20364;-61
2022/02/17 10:38:38;;;;;;;6.43;2.95;;;;;;;;;;4971145;28;20080;-62
2022/02/17 10:41:04;;;;;;;4.88;2.72;;;;;;;;;;4972745;28;20048;-60
2022/02/17 10:43:30;;;;;;;5.30;2.70;;;;;;;;;;4971406;28;20079;-60
2022/02/17 10:46:05;;;;;;;9.18;3.03;;;;;;;;;;4972588;28;20488;-60
2022/02/17 10:48:30;;;;;;;5.32;3.00;;;;;;;;;;4974033;28;20415;-61
2022/02/17 10:51:09;;;;;;;5.13;2.72;;;;;;;;;;4972836;28;20399;-61
2022/02/17 10:53:40;;;;;;;5.95;2.97;;;;;;;;;;4972311;28;20464;-61
2022/02/17 10:56:07;;;;;;;5.45;2.67;;;;;;;;;;4973586;28;20369;-61
2022/02/17 10:58:36;;;;;;;6.13;2.88;;;;;;;;;;4973192;28;20372;-61
2022/02/17 11:01:04;;;;;;;8.90;3.08;;;;;;;;;;4972926;28;20471;-61
2022/02/17 11:03:30;;;;;;;5.70;2.92;;;;;;;;;;4972839;28;20452;-61
2022/02/17 11:05:56;;;;;;;9.43;2.80;;;;;;;;;;4973135;28;20467;-62
2022/02/17 11:08:22;;;;;;;8.25;3.10;;;;;;;;;;4973362;28;20417;-61
2022/02/17 11:10:47;;;;;;;6.15;2.88;;;;;;;;;;4972376;28;20474;-61
2022/02/17 11:13:24;;;;;;;7.50;2.35;;;;;;;;;;4972696;28;20348;-61
2022/02/17 11:15:50;;;;;;;5.25;2.63;;;;;;;;;;4972163;28;20437;-61
2022/02/17 11:18:17;;;;;;;4.47;2.63;;;;;;;;;;4971934;28;20448;-61
2022/02/17 11:20:44;;;;;;;5.57;2.33;;;;;;;;;;4972091;28;20455;-62
2022/02/17 11:23:10;;;;;;;4.70;2.20;;;;;;;;;;4973015;28;20325;-61
2022/02/17 11:25:39;;;;;;;3.88;1.88;;;;;;;;;;4973521;28;20095;-61
2022/02/17 11:28:09;;;;;;;5.30;2.58;;;;;;;;;;4971939;28;20526;-61
2022/02/17 11:30:36;;;;;;;5.07;2.25;;;;;;;;;;4972052;28;20175;-62
2022/02/17 11:33:10;;;;;;;4.18;2.17;;;;;;;;;;4971672;28;20427;-61
2022/02/17 11:35:36;;;;;;;5.85;2.50;;;;;;;;;;4972058;28;20400;-61
2022/02/17 11:38:01;;;;;;;3.72;2.03;;;;;;;;;;4972076;28;20064;-61
2022/02/17 11:40:26;;;;;;;2.58;1.50;;;;;;;;;;4971858;28;20384;-62
2022/02/17 11:43:03;;;;;;;5.40;2.53;;;;;;;;;;4971954;28;20044;-61
2022/02/17 11:45:29;;;;;;;4.32;1.75;;;;;;;;;;4971226;28;20392;-61
2022/02/17 11:48:07;;;;;;;5.47;2.45;;;;;;;;;;4971870;28;20658;-62
2022/02/17 11:50:35;;;;;;;5.63;2.20;;;;;;;;;;4971143;28;20344;-62
2022/02/17 11:53:32;;;;;;;4.38;1.90;;;;;;;;;;4973286;28;20389;-63
2022/02/17 11:56:06;;;;;;;2.85;1.55;;;;;;;;;;4972124;28;20116;-61
2022/02/17 11:58:38;;;;;;;7.15;1.80;;;;;;;;;;4971806;28;20022;-62
2022/02/17 12:01:21;;;;;;;4.18;2.20;;;;;;;;;;4971745;28;20344;-62
2022/02/17 12:04:17;;;;;;;3.72;2.00;;;;;;;;;;4971871;28;20368;-62
2022/02/17 12:06:46;;;;;;;6.13;1.75;;;;;;;;;;4970818;28;20499;-62
2022/02/17 12:09:35;;;;;;;3.03;1.80;;;;;;;;;;4971360;28;20353;-62
2022/02/17 12:12:09;;;;;;;5.07;1.70;;;;;;;;;;4971879;28;20103;-62
2022/02/17 12:14:37;;;;;;;2.47;1.30;;;;;;;;;;4971050;28;20323;-62
2022/02/17 12:17:04;;;;;;;2.00;1.33;;;;;;;;;;4970959;28;20326;-62
2022/02/17 12:19:33;;;;;;;2.55;1.38;;;;;;;;;;4970933;28;20543;-62
2022/02/17 12:22:05;;;;;;;6.85;1.58;;;;;;;;;;4972987;28;20443;-61
2022/02/17 12:24:31;;;;;;;3.50;1.80;;;;;;;;;;4970752;28;20453;-62
2022/02/17 12:26:57;;;;;;;3.47;1.83;;;;;;;;;;4970884;28;20364;-62
2022/02/17 12:29:30;;;;;;;2.78;1.60;;;;;;;;;;4970775;28;20322;-62
2022/02/17 12:31:57;;;;;;;5.47;1.50;;;;;;;;;;4971465;28;20506;-62
2022/02/17 12:34:23;;;;;;;3.08;1.50;;;;;;;;;;4969622;28;20120;-62
2022/02/17 12:36:49;;;;;;;2.47;1.38;;;;;;;;;;4972218;28;20310;-62
2022/02/17 12:39:14;;;;;;;1.67;0.90;;;;;;;;;;4970906;28;20395;-62
2022/02/17 12:41:58;;;;;;;1.83;1.08;;;;;;;;;;4971469;28;20325;-62
2022/02/17 12:44:29;;;;;;;3.10;1.42;;;;;;;;;;4970334;28;20448;-62
2022/02/17 12:46:55;;;;;;;4.00;1.45;;;;;;;;;;4970696;28;20348;-62
2022/02/17 12:49:20;;;;;;;4.15;1.58;;;;;;;;;;4972442;28;20049;-62
2022/02/17 12:51:46;;;;;;;2.67;1.42;;;;;;;;;;4971194;28;20417;-62
2022/02/17 12:54:13;;;;;;;2.63;1.40;;;;;;;;;;4970939;28;20342;-62
2022/02/17 12:56:40;;;;;;;2.75;1.10;;;;;;;;;;4970444;28;20029;-62
2022/02/17 12:59:14;;;;;;;3.35;1.23;;;;;;;;;;4970441;28;20049;-62
2022/02/17 13:01:47;;;;;;;1.92;1.00;;;;;;;;;;4970317;28;20037;-63
2022/02/17 13:04:15;;;;;;;2.63;1.25;;;;;;;;;;4970716;28;20372;-62
2022/02/17 13:06:40;;;;;;;2.35;1.10;;;;;;;;;;4969789;28;20455;-62
2022/02/17 13:09:19;;;;;;;3.67;1.23;;;;;;;;;;4970245;28;20328;-62
2022/02/17 13:11:46;;;;;;;2.80;1.20;;;;;;;;;;4970409;28;20499;-62
2022/02/17 13:14:11;;;;;;;2.65;1.40;;;;;;;;;;4971204;28;20723;-62
2022/02/17 13:16:48;;;;;;;2.47;1.08;;;;;;;;;;4971201;28;20475;-62
2022/02/17 13:19:37;;;;;;;2.45;1.13;;;;;;;;;;4970230;28;20380;-63
2022/02/17 13:22:03;;;;;;;2.03;1.00;;;;;;;;;;4970753;28;20334;-61
2022/02/17 13:24:28;;;;;;;2.47;0.95;;;;;;;;;;4971406;28;20513;-61
2022/02/17 13:26:55;;;;;;;2.75;0.90;;;;;;;;;;4969799;28;20404;-62
2022/02/17 13:29:25;;;;;;;1.85;1.10;;;;;;;;;;4969402;28;20441;-62
2022/02/17 13:31:50;;;;;;;1.90;0.82;;;;;;;;;;4971513;28;20397;-62
2022/02/17 13:34:19;;;;;;;5.38;0.90;;;;;;;;;;4969649;28;20106;-62
2022/02/17 13:36:45;;;;;;;2.95;1.27;;;;;;;;;;4969787;28;20421;-62
2022/02/17 13:39:16;;;;;;;4.00;1.35;;;;;;;;;;4969782;28;20385;-61
2022/02/17 13:42:04;;;;;;;1.63;1.20;;;;;;;;;;4969584;28;20515;-63
2022/02/17 13:44:31;;;;;;;3.05;1.00;;;;;;;;;;4969498;28;20368;-61
2022/02/17 13:46:57;;;;;;;2.75;1.45;;;;;;;;;;4969942;28;20658;-62
2022/02/17 13:49:22;;;;;;;3.17;1.17;;;;;;;;;;4969501;28;20440;-63
2022/02/17 13:51:48;;;;;;;1.50;1.00;;;;;;;;;;4969890;28;20345;-62
2022/02/17 13:54:14;;;;;;;1.48;1.00;;;;;;;;;;4969842;28;20473;-62
2022/02/17 13:56:39;;;;;;;1.63;0.88;;;;;;;;;;4969615;28;20348;-62
2022/02/17 13:59:05;;;;;;;1.65;0.82;;;;;;;;;;4969474;28;20484;-61
2022/02/17 14:01:47;;;;;;;1.88;0.80;;;;;;;;;;4969570;28;20071;-62
2022/02/17 14:04:31;;;;;;;1.23;0.80;;;;;;;;;;4969255;28;20025;-62
2022/02/17 14:06:58;;;;;;;1.75;0.93;;;;;;;;;;4970167;28;20399;-62
2022/02/17 14:09:24;;;;;;;3.95;1.13;;;;;;;;;;4969243;28;20124;-62
2022/02/17 14:11:49;;;;;;;3.17;1.15;;;;;;;;;;4969556;28;20021;-62
2022/02/17 14:14:18;;;;;;;2.10;0.75;;;;;;;;;;4968704;28;20419;-62
2022/02/17 14:16:44;;;;;;;1.35;0.75;;;;;;;;;;4971050;28;20044;-62
2022/02/17 14:19:10;;;;;;;5.18;1.40;;;;;;;;;;4969231;28;20582;-62
2022/02/17 14:21:36;;;;;;;1.85;1.00;;;;;;;;;;4969140;28;20433;-62
2022/02/17 14:24:02;;;;;;;4.05;1.80;;;;;;;;;;4969355;28;20425;-62
2022/02/17 14:26:28;;;;;;;2.28;0.77;;;;;;;;;;4969090;28;20440;-62
2022/02/17 14:28:53;;;;;;;1.95;1.02;;;;;;;;;;4970094;28;20314;-62
2022/02/17 14:31:18;;;;;;;2.85;1.08;;;;;;;;;;4969377;28;20362;-62
2022/02/17 14:33:44;;;;;;;2.28;1.00;;;;;;;;;;4969932;28;20348;-63
2022/02/17 14:36:09;;;;;;;1.30;0.70;;;;;;;;;;4969086;28;20428;-62
2022/02/17 14:38:34;;;;;;;5.40;0.95;;;;;;;;;;4968994;28;20400;-62
2022/02/17 14:41:00;;;;;;;1.38;0.60;;;;;;;;;;4969262;28;20435;-62
2022/02/17 14:43:28;;;;;;;2.45;1.05;;;;;;;;;;4969212;28;20401;-62
2022/02/17 14:45:53;;;;;;;5.43;1.67;;;;;;;;;;4968661;28;20392;-62